Time;durP1;ratioP1;P1;durP2;ratioP2;P2;SDS_P1;SDS_P2;PMS_P1;PMS_P2;Temp;Humidity;BMP_temperature;BMP_pressure;BME280_temperature;BME280_humidity;BME280_pressure;Samples;Min_cycle;Max_cycle;Signal;HPM_P1;HPM_P2
2022/07/31 00:01:11;;;;;;;11.50;5.90;;;;;;;25.24;100.00;101620.53;5068558;28;20037;-54
2022/07/31 00:03:37;;;;;;;11.63;5.33;;;;;;;25.34;100.00;101609.56;5072739;28;20029;-49
2022/07/31 00:06:03;;;;;;;14.27;5.47;;;;;;;25.38;100.00;101609.84;5069282;28;20055;-52
2022/07/31 00:08:28;;;;;;;13.43;6.55;;;;;;;25.44;100.00;101614.22;5072431;28;20033;-51
2022/07/31 00:10:54;;;;;;;14.27;6.40;;;;;;;25.41;100.00;101609.28;5072811;28;20064;-53
2022/07/31 00:13:20;;;;;;;12.23;5.78;;;;;;;25.43;100.00;101607.09;5075126;28;20107;-55
2022/07/31 00:15:45;;;;;;;14.30;7.43;;;;;;;25.31;100.00;101605.47;5075757;28;20048;-51
2022/07/31 00:18:11;;;;;;;14.25;5.18;;;;;;;25.32;100.00;101601.63;5078207;28;20061;-50
2022/07/31 00:20:36;;;;;;;16.33;5.53;;;;;;;25.35;100.00;101601.06;5077770;28;20037;-54
2022/07/31 00:23:01;;;;;;;10.38;7.00;;;;;;;25.21;100.00;101610.97;5078315;28;20048;-54
2022/07/31 00:25:27;;;;;;;12.13;6.07;;;;;;;25.27;100.00;101598.91;5073554;28;20064;-53
2022/07/31 00:27:53;;;;;;;10.57;6.13;;;;;;;25.32;100.00;101598.09;5072706;28;20055;-49
2022/07/31 00:30:18;;;;;;;10.63;5.32;;;;;;;25.33;100.00;101597.78;5071004;28;20033;-53
2022/07/31 00:32:44;;;;;;;15.55;5.90;;;;;;;25.33;100.00;101597.78;5075437;28;20049;-50
2022/07/31 00:35:12;;;;;;;9.40;5.30;;;;;;;25.31;100.00;101601.91;5076383;28;20033;-53
2022/07/31 00:37:40;;;;;;;17.60;6.17;;;;;;;25.28;100.00;101594.28;5072592;28;20125;-52
2022/07/31 00:40:06;;;;;;;14.03;6.53;;;;;;;25.30;100.00;101592.06;5077694;28;20043;-54
2022/07/31 00:42:32;;;;;;;15.43;6.63;;;;;;;25.34;100.00;101590.41;5075888;28;20075;-52
2022/07/31 00:44:58;;;;;;;9.15;5.65;;;;;;;25.31;100.00;101589.03;5076987;28;20045;-52
2022/07/31 00:47:23;;;;;;;9.65;5.45;;;;;;;25.30;100.00;101592.06;5079574;28;20041;-52
2022/07/31 00:49:49;;;;;;;13.30;6.43;;;;;;;25.27;100.00;101587.97;5074837;28;20075;-53
2022/07/31 00:52:14;;;;;;;12.38;5.65;;;;;;;25.30;100.00;101576.44;5077184;28;20040;-53
2022/07/31 00:54:40;;;;;;;12.98;7.20;;;;;;;25.14;100.00;101566.63;5075868;28;20033;-51
2022/07/31 00:57:05;;;;;;;14.68;6.38;;;;;;;24.97;100.00;101565.03;5073730;28;20032;-50
2022/07/31 00:59:32;;;;;;;11.35;5.78;;;;;;;25.06;100.00;101562.56;5074093;28;20044;-48
2022/07/31 01:01:58;;;;;;;15.10;5.20;;;;;;;25.06;100.00;101563.38;5074224;28;20017;-52
2022/07/31 01:04:25;;;;;;;13.50;5.03;;;;;;;25.01;100.00;101574.31;5073494;28;20029;-53
2022/07/31 01:06:54;;;;;;;22.67;10.63;;;;;;;24.86;100.00;101564.22;5071116;28;20060;-54
2022/07/31 01:09:21;;;;;;;22.90;11.33;;;;;;;24.63;100.00;101571.03;5074376;28;20058;-49
2022/07/31 01:12:06;;;;;;;12.70;6.50;;;;;;;24.70;100.00;101563.38;5062402;28;20016;-47
2022/07/31 01:14:39;;;;;;;10.57;4.83;;;;;;;24.62;100.00;101566.66;5066840;28;20060;-52
2022/07/31 01:17:06;;;;;;;16.40;7.67;;;;;;;24.72;100.00;101561.19;5069668;28;20044;-47
2022/07/31 01:19:40;;;;;;;14.57;7.60;;;;;;;24.83;100.00;101563.94;5070171;28;20029;-51
2022/07/31 01:22:23;;;;;;;14.00;5.00;;;;;;;24.84;100.00;101552.75;5066342;28;20037;-50
2022/07/31 01:25:08;;;;;;;12.23;6.57;;;;;;;24.66;100.00;101550.53;5072891;28;20100;-53
2022/07/31 01:27:48;;;;;;;11.63;6.43;;;;;;;24.79;100.00;101557.38;5066217;28;20033;-50
2022/07/31 01:30:14;;;;;;;9.80;5.17;;;;;;;24.68;100.00;101554.66;5071253;28;20068;-52
2022/07/31 01:32:45;;;;;;;21.27;11.65;;;;;;;24.69;100.00;101547.25;5054790;28;20033;-50
2022/07/31 01:35:20;;;;;;;11.03;4.63;;;;;;;24.46;100.00;101552.16;5068562;28;20037;-51
2022/07/31 01:37:53;;;;;;;8.57;4.77;;;;;;;24.42;100.00;101546.41;5066412;28;20033;-52
2022/07/31 01:40:35;;;;;;;14.13;6.03;;;;;;;24.44;100.00;101549.69;5069112;28;20090;-48
2022/07/31 01:43:06;;;;;;;8.03;4.43;;;;;;;24.30;100.00;101549.41;5068933;28;20044;-50
2022/07/31 01:45:35;;;;;;;12.13;5.70;;;;;;;24.05;100.00;101536.53;5066433;28;20053;-51
2022/07/31 01:48:02;;;;;;;11.00;4.30;;;;;;;24.18;100.00;101551.59;5073568;28;20033;-48
2022/07/31 01:50:35;;;;;;;13.57;6.10;;;;;;;24.26;100.00;101542.03;5079548;28;20079;-50
2022/07/31 01:53:02;;;;;;;20.13;9.27;;;;;;;24.14;100.00;101545.03;5068294;28;20043;-53
2022/07/31 01:55:30;;;;;;;13.75;6.45;;;;;;;23.98;100.00;101541.38;5065664;28;20053;-52
2022/07/31 01:57:56;;;;;;;10.03;4.57;;;;;;;24.19;100.00;101543.09;5067635;28;20033;-51
2022/07/31 02:00:22;;;;;;;14.00;6.30;;;;;;;23.90;100.00;101551.75;5070218;28;20146;-49
2022/07/31 02:02:50;;;;;;;18.33;8.02;;;;;;;23.83;100.00;101562.13;5067873;28;20036;-47
2022/07/31 02:05:17;;;;;;;14.20;5.33;;;;;;;23.73;100.00;101551.97;5066723;28;20034;-51
2022/07/31 02:07:44;;;;;;;8.10;5.10;;;;;;;23.94;100.00;101551.22;5068855;28;20068;-49
2022/07/31 02:10:14;;;;;;;10.23;5.07;;;;;;;24.01;100.00;101540.88;5071056;28;20024;-53
2022/07/31 02:12:42;;;;;;;13.17;5.00;;;;;;;24.00;100.00;101548.22;5076483;28;20020;-48
2022/07/31 02:15:11;;;;;;;16.03;5.60;;;;;;;23.99;100.00;101543.84;5077874;28;20055;-48
2022/07/31 02:17:40;;;;;;;14.60;5.70;;;;;;;23.86;100.00;101539.72;5080104;28;20029;-46
2022/07/31 02:20:22;;;;;;;7.97;4.60;;;;;;;23.95;100.00;101533.72;5073877;28;20045;-48
2022/07/31 02:22:49;;;;;;;11.13;5.43;;;;;;;24.00;100.00;101523.66;5071302;28;20041;-47
2022/07/31 02:25:14;;;;;;;11.88;4.85;;;;;;;24.04;100.00;101529.44;5074111;28;20029;-57
2022/07/31 02:27:42;;;;;;;7.65;4.55;;;;;;;23.88;100.00;101529.34;5072122;28;20049;-50
2022/07/31 02:30:11;;;;;;;13.43;5.50;;;;;;;23.59;100.00;101529.81;5077903;28;20036;-49
2022/07/31 02:32:38;;;;;;;11.70;4.50;;;;;;;23.84;100.00;101531.00;5073233;28;20049;-50
2022/07/31 02:35:06;;;;;;;11.50;5.23;;;;;;;23.89;100.00;101531.00;5075787;28;20041;-51
2022/07/31 02:37:36;;;;;;;11.60;5.03;;;;;;;23.90;100.00;101529.91;5075196;28;20029;-50
2022/07/31 02:40:03;;;;;;;11.80;5.33;;;;;;;23.83;100.00;101529.34;5072292;28;20037;-52
2022/07/31 02:42:29;;;;;;;14.23;5.43;;;;;;;23.81;100.00;101542.44;5080798;28;20028;-54
2022/07/31 02:44:56;;;;;;;;;;;;;;;23.42;100.00;101540.09;5072787;28;20108;-53
2022/07/31 02:47:24;;;;;;;12.07;5.93;;;;;;;23.54;100.00;101531.69;5071840;28;19944;-48
2022/07/31 02:49:50;;;;;;;9.88;5.57;;;;;;;23.39;100.00;101530.53;5072778;28;20108;-53
2022/07/31 02:52:16;;;;;;;9.20;4.93;;;;;;;23.52;100.00;101518.28;5071577;28;20060;-48
2022/07/31 02:54:44;;;;;;;10.70;5.40;;;;;;;23.53;100.00;101519.97;5074479;28;20055;-52
2022/07/31 02:57:09;;;;;;;13.03;4.87;;;;;;;23.65;100.00;101518.91;5075931;28;20045;-52
2022/07/31 02:59:36;;;;;;;8.70;4.47;;;;;;;23.79;100.00;101522.78;5074278;28;20040;-48
2022/07/31 03:02:03;;;;;;;9.57;4.67;;;;;;;23.82;100.00;101524.97;5073188;28;20044;-53
2022/07/31 03:04:30;;;;;;;16.57;5.60;;;;;;;23.72;100.00;101520.31;5075653;28;20012;-53
2022/07/31 03:06:58;;;;;;;11.10;5.55;;;;;;;23.52;100.00;101521.03;5077908;28;20029;-50
2022/07/31 03:09:23;;;;;;;8.53;5.57;;;;;;;23.56;100.00;101503.06;5074226;28;20037;-52
2022/07/31 03:12:00;;;;;;;15.18;6.28;;;;;;;23.53;100.00;101503.59;5072229;28;20043;-52
2022/07/31 03:14:26;;;;;;;14.18;5.25;;;;;;;23.52;100.00;101501.13;5069830;28;20029;-51
2022/07/31 03:16:54;;;;;;;17.40;5.57;;;;;;;23.58;100.00;101509.06;5072649;28;20032;-51
2022/07/31 03:19:22;;;;;;;15.27;5.87;;;;;;;23.58;100.00;101519.16;5074935;28;20048;-49
2022/07/31 03:21:49;;;;;;;11.80;4.90;;;;;;;23.66;100.00;101515.09;5073749;28;20060;-50
2022/07/31 03:24:16;;;;;;;;;;;;;;;23.67;100.00;101508.53;5074288;28;20025;-47
2022/07/31 03:26:41;;;;;;;16.57;5.93;;;;;;;23.66;100.00;101506.91;5074500;28;19919;-51
2022/07/31 03:29:07;;;;;;;10.82;6.10;;;;;;;23.38;100.00;101500.78;5072909;28;20029;-53
2022/07/31 03:31:33;;;;;;;13.18;6.45;;;;;;;23.47;100.00;101504.63;5073009;28;20665;-49
2022/07/31 03:33:58;;;;;;;13.18;6.65;;;;;;;23.41;100.00;101501.09;5072725;28;20044;-51
2022/07/31 03:36:25;;;;;;;13.65;7.72;;;;;;;23.47;100.00;101504.63;5076210;28;20025;-51
2022/07/31 03:38:50;;;;;;;13.90;7.35;;;;;;;23.18;100.00;101505.03;5071392;28;20044;-54
2022/07/31 03:41:33;;;;;;;15.03;6.67;;;;;;;23.05;100.00;101504.41;5072538;28;20041;-49
2022/07/31 03:43:59;;;;;;;15.47;7.60;;;;;;;23.09;100.00;101501.16;5073411;28;20048;-49
2022/07/31 03:46:25;;;;;;;13.38;7.28;;;;;;;23.31;100.00;101495.56;5073525;28;20041;-49
2022/07/31 03:48:51;;;;;;;15.20;7.80;;;;;;;23.43;100.00;101493.44;5070478;28;20029;-49
2022/07/31 03:51:17;;;;;;;15.07;7.07;;;;;;;23.26;100.00;101487.38;5073260;28;20046;-50
2022/07/31 03:53:44;;;;;;;14.17;8.10;;;;;;;23.40;100.00;101487.69;5080018;28;20040;-51
2022/07/31 03:56:27;;;;;;;12.10;7.83;;;;;;;23.14;100.00;101480.16;5083273;28;20099;-52
2022/07/31 03:58:53;;;;;;;;;;;;;;;23.20;100.00;101486.47;5082276;28;20056;-50
2022/07/31 04:01:20;;;;;;;19.23;9.00;;;;;;;23.06;100.00;101486.13;5063569;28;19916;-49
2022/07/31 04:03:46;;;;;;;15.53;7.83;;;;;;;23.11;100.00;101490.81;5076362;28;20033;-50
2022/07/31 04:06:33;;;;;;;14.90;8.38;;;;;;;22.98;100.00;101497.56;5078187;28;20092;-47
2022/07/31 04:09:02;;;;;;;15.80;9.90;;;;;;;23.03;100.00;101492.94;5075492;28;20090;-48
2022/07/31 04:11:28;;;;;;;16.60;9.57;;;;;;;22.69;100.00;101501.44;5078262;28;20039;-47
2022/07/31 04:13:54;;;;;;;15.77;10.15;;;;;;;22.65;100.00;101500.34;5075316;28;20029;-55
2022/07/31 04:16:20;;;;;;;18.40;9.27;;;;;;;22.77;100.00;101497.41;5079125;28;20056;-47
2022/07/31 04:18:46;;;;;;;18.27;9.57;;;;;;;22.55;100.00;101506.53;5079399;28;20032;-48
2022/07/31 04:21:12;;;;;;;18.10;9.50;;;;;;;22.77;100.00;101506.41;5077199;28;20043;-51
2022/07/31 04:23:39;;;;;;;16.40;9.40;;;;;;;22.81;100.00;101503.16;5076424;28;20032;-49
2022/07/31 04:26:23;;;;;;;13.30;9.30;;;;;;;22.59;100.00;101509.53;5075480;28;20040;-50
2022/07/31 04:28:55;;;;;;;18.70;10.13;;;;;;;22.78;100.00;101499.88;5075799;28;20052;-49
2022/07/31 04:31:21;;;;;;;18.27;9.25;;;;;;;22.39;100.00;101502.81;5078213;28;20021;-50
2022/07/31 04:33:47;;;;;;;27.60;9.43;;;;;;;22.48;100.00;101509.47;5075044;28;20044;-52
2022/07/31 04:36:13;;;;;;;;;;;;;;;22.47;100.00;101507.81;5080395;28;20079;-52
2022/07/31 04:38:39;;;;;;;18.20;9.17;;;;;;;22.45;100.00;101501.78;5073148;28;19913;-52
2022/07/31 04:41:05;;;;;;;;;;;;;;;22.76;100.00;101491.13;5080944;28;20056;-52
2022/07/31 04:43:30;;;;;;;17.80;9.77;;;;;;;22.73;100.00;101488.13;5070546;28;19912;-48
2022/07/31 04:45:56;;;;;;;14.30;9.18;;;;;;;22.82;100.00;101491.16;5078679;28;20052;-53
2022/07/31 04:48:22;;;;;;;19.57;9.37;;;;;;;22.82;100.00;101482.97;5071340;28;20043;-52
2022/07/31 04:50:48;;;;;;;18.58;9.90;;;;;;;22.75;100.00;101483.22;5074968;28;20017;-53
2022/07/31 04:53:13;;;;;;;17.38;9.80;;;;;;;22.94;100.00;101490.97;5080483;28;20032;-54
2022/07/31 04:55:41;;;;;;;20.07;10.40;;;;;;;22.99;100.00;101488.28;5078739;28;20055;-49
2022/07/31 04:58:06;;;;;;;18.07;10.77;;;;;;;22.93;100.00;101484.69;5075621;28;20096;-52
2022/07/31 05:00:32;;;;;;;20.45;10.65;;;;;;;22.82;100.00;101492.00;5076593;28;20085;-50
2022/07/31 05:02:58;;;;;;;22.60;11.05;;;;;;;22.76;100.00;101488.41;5078401;28;20048;-52
2022/07/31 05:05:23;;;;;;;18.58;10.88;;;;;;;22.63;100.00;101486.94;5076851;28;20039;-50
2022/07/31 05:07:49;;;;;;;19.10;11.20;;;;;;;22.23;100.00;101487.41;5077266;28;20033;-52
2022/07/31 05:13:02;;;;;;;19.03;12.87;;;;;;;22.24;100.00;101483.59;5076808;28;20047;-54
2022/07/31 05:15:30;;;;;;;26.37;13.60;;;;;;;22.11;100.00;101490.31;5081128;28;20031;-53
2022/07/31 05:17:55;;;;;;;35.40;14.82;;;;;;;22.00;100.00;101483.94;5080572;28;20040;-50
2022/07/31 05:20:39;;;;;;;24.83;13.60;;;;;;;21.97;100.00;101481.72;5081501;28;20059;-49
2022/07/31 05:23:22;;;;;;;23.77;12.73;;;;;;;21.88;100.00;101481.34;5080862;28;20029;-52
2022/07/31 05:26:08;;;;;;;22.37;11.97;;;;;;;21.71;100.00;101484.19;5075424;28;20048;-49
2022/07/31 05:28:37;;;;;;;22.70;11.87;;;;;;;21.73;100.00;101492.91;5077327;28;20028;-53
2022/07/31 05:31:03;;;;;;;26.20;14.17;;;;;;;21.75;100.00;101490.75;5074778;28;20028;-53
2022/07/31 05:33:29;;;;;;;;;;;;;;;21.77;100.00;101496.75;5077996;28;20032;-49
2022/07/31 05:35:55;;;;;;;19.00;11.07;;;;;;;22.17;100.00;101489.25;5079381;28;19940;-48
2022/07/31 05:38:21;;;;;;;25.67;13.53;;;;;;;22.48;100.00;101484.94;5076904;28;20029;-51
2022/07/31 05:41:01;;;;;;;23.60;11.07;;;;;;;22.01;100.00;101491.03;5077294;28;20049;-49
2022/07/31 05:43:39;;;;;;;21.97;11.63;;;;;;;21.99;100.00;101490.47;5062983;28;20025;-51
2022/07/31 05:46:15;;;;;;;23.73;12.43;;;;;;;22.14;100.00;101484.34;5073108;28;20040;-51
2022/07/31 05:48:41;;;;;;;19.03;11.57;;;;;;;22.08;100.00;101490.81;5077514;28;20033;-48
2022/07/31 05:51:11;;;;;;;23.60;12.30;;;;;;;22.31;100.00;101489.66;5073773;28;20034;-48
2022/07/31 05:53:37;;;;;;;25.57;15.67;;;;;;;22.54;100.00;101487.69;5077587;28;20048;-50
2022/07/31 05:56:22;;;;;;;21.47;13.17;;;;;;;22.18;100.00;101496.34;5075603;28;20063;-48
2022/07/31 05:58:50;;;;;;;22.53;12.30;;;;;;;22.34;100.00;101489.13;5078778;28;20029;-51
2022/07/31 06:01:15;;;;;;;27.02;14.15;;;;;;;22.11;100.00;101493.84;5074441;28;20037;-53
2022/07/31 06:03:42;;;;;;;22.33;12.33;;;;;;;22.24;100.00;101492.59;5077172;28;20063;-49
2022/07/31 06:06:16;;;;;;;20.90;11.93;;;;;;;22.48;100.00;101489.53;5076519;28;20021;-50
2022/07/31 06:08:42;;;;;;;21.37;12.97;;;;;;;22.24;100.00;101494.50;5079632;28;20043;-48
2022/07/31 06:11:07;;;;;;;26.88;12.75;;;;;;;22.15;100.00;101494.97;5075043;28;20037;-47
2022/07/31 06:13:33;;;;;;;26.20;12.30;;;;;;;22.13;100.00;101488.94;5078054;28;20036;-48
2022/07/31 06:16:12;;;;;;;19.73;12.00;;;;;;;22.18;100.00;101485.47;5075200;28;20029;-49
2022/07/31 06:18:38;;;;;;;23.07;12.63;;;;;;;22.20;100.00;101495.03;5078922;28;20032;-50
2022/07/31 06:21:04;;;;;;;21.85;11.13;;;;;;;21.93;100.00;101495.03;5076180;28;20217;-51
2022/07/31 06:23:30;;;;;;;;;;;;;;;22.12;100.00;101495.47;5077074;28;20037;-49
2022/07/31 06:26:12;;;;;;;21.23;12.70;;;;;;;22.09;100.00;101490.53;5074219;28;19918;-47
2022/07/31 06:28:38;;;;;;;20.65;13.07;;;;;;;21.81;100.00;101497.88;5074153;28;20025;-49
2022/07/31 06:31:04;;;;;;;24.10;12.32;;;;;;;21.75;100.00;101488.03;5072439;28;20072;-51
2022/07/31 06:33:29;;;;;;;25.65;13.15;;;;;;;21.68;100.00;101487.38;5074896;28;20051;-48
2022/07/31 06:35:55;;;;;;;24.73;13.60;;;;;;;21.75;100.00;101490.75;5075714;28;20040;-50
2022/07/31 06:38:34;;;;;;;18.10;10.83;;;;;;;21.80;100.00;101484.53;5075721;28;20092;-46
2022/07/31 06:41:45;;;;;;;22.30;11.53;;;;;;;21.84;100.00;101483.75;5075331;28;20048;-48
2022/07/31 06:44:26;;;;;;;21.47;12.10;;;;;;;21.93;100.00;101478.69;5081474;28;20055;-50
2022/07/31 06:47:12;;;;;;;21.83;11.93;;;;;;;22.51;100.00;101480.88;5073969;28;20128;-50
2022/07/31 06:50:00;;;;;;;19.80;10.83;;;;;;;22.29;100.00;101478.19;5084189;28;20055;-51
2022/07/31 06:52:29;;;;;;;19.57;11.23;;;;;;;22.76;100.00;101496.59;5075935;28;20067;-54
2022/07/31 06:54:54;;;;;;;17.75;9.68;;;;;;;22.71;100.00;101496.56;5074339;28;20029;-54
2022/07/31 06:57:20;;;;;;;17.80;10.07;;;;;;;22.54;100.00;101493.16;5071789;28;20045;-51
2022/07/31 06:59:45;;;;;;;18.38;10.10;;;;;;;22.59;100.00;101499.47;5075998;28;20071;-52
2022/07/31 07:02:11;;;;;;;17.23;10.13;;;;;;;22.63;100.00;101494.31;5075024;28;20033;-51
2022/07/31 07:04:38;;;;;;;18.07;10.63;;;;;;;22.63;100.00;101491.59;5075199;28;20036;-50
2022/07/31 07:07:03;;;;;;;21.83;11.30;;;;;;;22.57;100.00;101488.00;5076376;28;21013;-49
2022/07/31 07:09:29;;;;;;;19.02;10.20;;;;;;;22.86;100.00;101489.56;5067749;28;20056;-51
2022/07/31 07:11:56;;;;;;;17.98;10.05;;;;;;;23.01;100.00;101486.91;5077917;28;20064;-49
2022/07/31 07:14:22;;;;;;;21.73;11.70;;;;;;;23.03;100.00;101490.19;5065846;28;20058;-51
2022/07/31 07:16:47;;;;;;;20.42;11.18;;;;;;;22.69;100.00;101490.53;5067964;28;20065;-48
2022/07/31 07:19:13;;;;;;;20.00;11.10;;;;;;;22.64;100.00;101487.78;5069181;28;20100;-52
2022/07/31 07:21:41;;;;;;;22.23;12.83;;;;;;;22.67;100.00;101494.59;5069350;28;20053;-50
2022/07/31 07:24:07;;;;;;;;;;;;;;;22.74;100.00;101487.84;5068028;28;20041;-49
2022/07/31 07:26:47;;;;;;;15.93;11.33;;;;;;;23.17;100.00;101490.53;5067201;28;19919;-50
2022/07/31 07:29:13;;;;;;;22.08;12.23;;;;;;;23.19;100.00;101493.03;5066869;28;20045;-54
2022/07/31 07:31:39;;;;;;;22.10;12.77;;;;;;;23.69;100.00;101479.88;5068676;28;20029;-47
2022/07/31 07:34:07;;;;;;;21.33;12.05;;;;;;;23.54;100.00;101488.00;5072228;28;20033;-49
2022/07/31 07:36:34;;;;;;;26.90;12.83;;;;;;;23.55;100.00;101481.47;5068546;28;20034;-51
2022/07/31 07:39:09;;;;;;;27.83;13.23;;;;;;;23.28;100.00;101477.00;5074445;28;20034;-52
2022/07/31 07:41:34;;;;;;;26.02;13.85;;;;;;;23.27;100.00;101470.72;5071730;28;20029;-50
2022/07/31 07:44:00;;;;;;;24.88;13.63;;;;;;;23.67;100.00;101468.41;5072621;28;20100;-51
2022/07/31 07:46:28;;;;;;;26.17;13.67;;;;;;;23.87;100.00;101475.81;5077806;28;20072;-53
2022/07/31 07:48:56;;;;;;;28.03;12.50;;;;;;;23.68;100.00;101471.94;5080767;28;20036;-55
2022/07/31 07:51:35;;;;;;;27.40;13.50;;;;;;;23.38;100.00;101473.50;5075193;28;20448;-53
2022/07/31 07:54:20;;;;;;;27.53;15.43;;;;;;;23.63;100.00;101468.13;5076261;28;20092;-53
2022/07/31 07:57:13;;;;;;;23.73;13.60;;;;;;;23.82;100.00;101473.09;5076736;28;20064;-52
2022/07/31 07:59:59;;;;;;;29.73;14.27;;;;;;;23.91;100.00;101471.47;5075885;28;20059;-50
2022/07/31 08:02:47;;;;;;;29.60;13.80;;;;;;;23.96;100.00;101484.31;5074608;28;20047;-49
2022/07/31 08:05:15;;;;;;;23.73;13.07;;;;;;;24.09;100.00;101465.75;5066062;28;20040;-52
2022/07/31 08:07:43;;;;;;;22.77;12.23;;;;;;;24.58;100.00;101461.66;5073637;28;20060;-52
2022/07/31 08:10:38;;;;;;;27.53;14.30;;;;;;;24.25;100.00;101467.41;5075224;28;20024;-51
2022/07/31 08:13:28;;;;;;;25.27;14.60;;;;;;;24.39;100.00;101467.69;5077565;28;20029;-52
2022/07/31 08:16:12;;;;;;;26.03;13.70;;;;;;;25.18;100.00;101466.47;5078374;28;20107;-53
2022/07/31 08:18:43;;;;;;;22.50;13.87;;;;;;;25.55;100.00;101464.44;5074901;28;20029;-53
2022/07/31 08:21:10;;;;;;;25.30;14.13;;;;;;;25.44;100.00;101463.63;5075117;28;20033;-49
2022/07/31 08:23:35;;;;;;;21.42;12.40;;;;;;;25.23;100.00;101471.09;5072957;28;20055;-49
2022/07/31 08:26:07;;;;;;;25.33;13.53;;;;;;;25.18;100.00;101471.97;5074060;28;20104;-48
2022/07/31 08:28:33;;;;;;;25.70;13.93;;;;;;;25.15;100.00;101469.78;5071876;28;20147;-49
2022/07/31 08:31:00;;;;;;;21.43;13.23;;;;;;;25.02;100.00;101466.53;5070955;28;20025;-50
2022/07/31 08:33:25;;;;;;;23.75;12.32;;;;;;;24.85;100.00;101471.50;5073451;28;20104;-54
2022/07/31 08:35:53;;;;;;;26.70;14.30;;;;;;;24.75;100.00;101472.34;5067468;28;20048;-53
2022/07/31 08:38:20;;;;;;;20.97;12.67;;;;;;;24.71;100.00;101474.78;5070187;28;20040;-52
2022/07/31 08:41:15;;;;;;;27.00;13.87;;;;;;;24.93;100.00;101473.69;5074623;28;20048;-56
2022/07/31 08:43:40;;;;;;;27.40;14.98;;;;;;;24.85;100.00;101474.22;5073073;28;20029;-49
2022/07/31 08:46:07;;;;;;;25.77;13.73;;;;;;;24.97;100.00;101477.50;5073213;28;20044;-51
2022/07/31 08:48:39;;;;;;;28.07;13.37;;;;;;;25.08;100.00;101464.59;5070376;28;20040;-51
2022/07/31 08:51:05;;;;;;;27.23;15.73;;;;;;;24.91;100.00;101481.31;5070136;28;20032;-48
2022/07/31 08:53:51;;;;;;;29.27;14.27;;;;;;;24.96;100.00;101480.50;5071457;28;20075;-52
2022/07/31 08:56:19;;;;;;;25.90;13.93;;;;;;;24.81;100.00;101470.41;5056252;28;20025;-50
2022/07/31 08:58:45;;;;;;;25.13;14.40;;;;;;;25.04;100.00;101464.31;5072197;28;20037;-53
2022/07/31 09:01:12;;;;;;;25.70;14.03;;;;;;;24.80;100.00;101472.34;5070728;28;20044;-50
2022/07/31 09:03:38;;;;;;;33.37;16.57;;;;;;;24.99;100.00;101480.78;5071575;28;20029;-49
2022/07/31 09:06:08;;;;;;;30.40;16.00;;;;;;;25.01;100.00;101475.00;5075870;28;20055;-51
2022/07/31 09:08:35;;;;;;;26.48;15.32;;;;;;;24.97;100.00;101480.22;5071880;28;20037;-50
2022/07/31 09:11:10;;;;;;;31.63;16.93;;;;;;;25.05;100.00;101487.06;5076275;28;20021;-49
2022/07/31 09:13:57;;;;;;;32.10;15.67;;;;;;;24.91;100.00;101475.84;5066839;28;20113;-50
2022/07/31 09:16:47;;;;;;;33.00;18.80;;;;;;;24.09;100.00;101479.44;5065983;28;20089;-50
2022/07/31 09:19:13;;;;;;;34.27;18.60;;;;;;;24.43;100.00;101474.25;5067087;28;20029;-51
2022/07/31 09:21:41;;;;;;;45.73;21.30;;;;;;;24.52;100.00;101470.97;5066947;28;20033;-51
2022/07/31 09:24:23;;;;;;;41.60;21.40;;;;;;;24.51;100.00;101477.53;5067700;28;20090;-49
2022/07/31 09:26:59;;;;;;;40.00;21.10;;;;;;;24.28;100.00;101466.06;5068712;28;20029;-52
2022/07/31 09:29:41;;;;;;;42.13;21.85;;;;;;;24.47;100.00;101469.06;5067484;28;20045;-51
2022/07/31 09:32:20;;;;;;;44.43;23.57;;;;;;;24.43;100.00;101470.72;5070401;28;20045;-51
2022/07/31 09:35:10;;;;;;;47.30;25.63;;;;;;;24.68;100.00;101477.25;5066511;28;20029;-52
2022/07/31 09:37:38;;;;;;;53.37;26.63;;;;;;;24.85;100.00;101477.78;5076890;28;20100;-51
2022/07/31 09:40:32;;;;;;;53.23;29.03;;;;;;;24.61;100.00;101483.81;5069471;28;20051;-50
2022/07/31 09:43:23;;;;;;;50.87;28.23;;;;;;;24.67;100.00;101479.16;5048387;28;20066;-51
2022/07/31 09:45:59;;;;;;;72.47;36.50;;;;;;;24.77;100.00;101470.13;5070333;28;20072;-50
2022/07/31 09:48:26;;;;;;;60.97;31.85;;;;;;;25.31;100.00;101468.59;5072719;28;20148;-50
2022/07/31 09:50:55;;;;;;;;;;;;;;;25.27;100.00;101467.53;5071142;28;20033;-52
2022/07/31 09:53:23;;;;;;;51.33;27.33;;;;;;;24.99;100.00;101475.28;5071029;28;19920;-52
2022/07/31 09:55:56;;;;;;;55.73;29.50;;;;;;;25.43;100.00;101470.22;5073572;28;20044;-51
2022/07/31 09:58:23;;;;;;;49.17;28.63;;;;;;;25.11;100.00;101474.16;5070750;28;20482;-48
2022/07/31 10:00:52;;;;;;;53.63;30.83;;;;;;;24.76;100.00;101468.50;5069555;28;20041;-52
2022/07/31 10:03:19;;;;;;;48.53;26.73;;;;;;;25.38;100.00;101467.50;5069844;28;20116;-51
2022/07/31 10:05:46;;;;;;;52.97;29.67;;;;;;;25.17;100.00;101460.19;5071740;28;20025;-57
2022/07/31 10:08:13;;;;;;;47.87;25.87;;;;;;;25.03;100.00;101461.88;5066737;28;20032;-50
2022/07/31 10:11:01;;;;;;;52.90;29.90;;;;;;;25.38;100.00;101456.56;5067248;28;20045;-48
2022/07/31 10:13:49;;;;;;;47.33;28.10;;;;;;;25.37;100.00;101458.47;5066494;28;20061;-52
2022/07/31 10:16:16;;;;;;;38.93;25.63;;;;;;;25.95;100.00;101454.31;5072214;28;20278;-51
2022/07/31 10:19:02;;;;;;;45.37;24.87;;;;;;;25.29;100.00;101454.38;5081206;28;20086;-48
2022/07/31 10:21:36;;;;;;;42.40;23.60;;;;;;;25.90;100.00;101457.06;5067274;28;20121;-53
2022/07/31 10:24:09;;;;;;;40.57;24.63;;;;;;;25.80;100.00;101457.97;5062791;28;20024;-52
2022/07/31 10:26:35;;;;;;;33.90;23.33;;;;;;;25.25;100.00;101464.25;5067402;28;20117;-50
2022/07/31 10:29:01;;;;;;;37.17;22.30;;;;;;;25.18;100.00;101458.28;5073277;28;20024;-49
2022/07/31 10:31:26;;;;;;;34.45;22.02;;;;;;;25.71;100.00;101460.47;5066968;28;20066;-50
2022/07/31 10:33:54;;;;;;;34.28;21.45;;;;;;;25.72;100.00;101466.78;5074201;28;20097;-52
2022/07/31 10:36:41;;;;;;;40.63;24.47;;;;;;;25.74;100.00;101453.63;5069949;28;20091;-49
2022/07/31 10:39:58;;;;;;;37.83;23.80;;;;;;;26.26;100.00;101456.00;5065779;28;20039;-48
2022/07/31 10:42:51;;;;;;;35.63;22.40;;;;;;;26.04;100.00;101449.03;5039824;28;20061;-49
2022/07/31 10:45:17;;;;;;;37.20;22.00;;;;;;;26.05;100.00;101443.28;5072058;28;20056;-53
2022/07/31 10:48:10;;;;;;;38.47;25.17;;;;;;;26.20;100.00;101447.03;5071151;28;20060;-50
2022/07/31 10:51:10;;;;;;;33.40;21.80;;;;;;;26.18;100.00;101435.50;5070128;28;20997;-50
2022/07/31 10:53:59;;;;;;;37.83;24.13;;;;;;;25.87;100.00;101436.56;5073520;28;20048;-48
2022/07/31 10:56:46;;;;;;;37.43;24.53;;;;;;;25.88;100.00;101448.34;5068037;28;20109;-52
2022/07/31 10:59:47;;;;;;;39.13;26.37;;;;;;;25.77;100.00;101442.09;5051874;28;20067;-54
2022/07/31 11:02:34;;;;;;;42.80;27.60;;;;;;;25.35;100.00;101445.03;5070298;28;20055;-52
2022/07/31 11:05:22;;;;;;;41.73;27.27;;;;;;;25.11;100.00;101438.56;5071444;28;20207;-52
2022/07/31 11:08:08;;;;;;;39.17;26.37;;;;;;;25.56;100.00;101444.16;5058209;28;20053;-48
2022/07/31 11:11:05;;;;;;;43.33;28.50;;;;;;;26.08;100.00;101441.91;5058345;28;20044;-53
2022/07/31 11:13:56;;;;;;;31.02;22.10;;;;;;;26.43;100.00;101426.25;5071491;28;20045;-53
2022/07/31 11:16:48;;;;;;;37.10;24.80;;;;;;;26.86;100.00;101427.50;5068604;28;20033;-51
2022/07/31 11:19:39;;;;;;;33.42;22.10;;;;;;;27.22;100.00;101418.81;5063973;28;20041;-54
2022/07/31 11:22:12;;;;;;;27.90;21.73;;;;;;;27.29;100.00;101418.44;5068509;28;20044;-49
2022/07/31 11:24:38;;;;;;;29.97;18.70;;;;;;;27.51;100.00;101415.16;5072838;28;20036;-55
2022/07/31 11:27:05;;;;;;;30.27;18.90;;;;;;;27.33;100.00;101422.22;5066449;28;20047;-49
2022/07/31 11:29:36;;;;;;;30.27;17.80;;;;;;;27.27;100.00;101418.75;5078650;28;20060;-50